sensor_id;sensor_type;location;lat;lon;timestamp;noise_LAeq;noise_LA_min;noise_LA_max;noise_LA01;noise_LA95
80953;Laerm;70415;51.660;5.824;2023-06-22T00:03:46;33.75;30.65;43.07;;
80953;Laerm;70415;51.660;5.824;2023-06-22T00:07:46;32.77;30.31;43.27;;
80953;Laerm;70415;51.660;5.824;2023-06-22T00:11:46;32.99;30.36;41.4;;
80953;Laerm;70415;51.660;5.824;2023-06-22T00:15:46;32.68;30.58;41.03;;
80953;Laerm;70415;51.660;5.824;2023-06-22T00:19:46;34.42;30.54;44.63;;
80953;Laerm;70415;51.660;5.824;2023-06-22T00:23:46;33.16;30.38;42.17;;
80953;Laerm;70415;51.660;5.824;2023-06-22T00:27:46;35.99;30.45;50.96;;
80953;Laerm;70415;51.660;5.824;2023-06-22T00:31:46;32.57;30.3;41.11;;
80953;Laerm;70415;51.660;5.824;2023-06-22T00:35:46;32.23;30.22;39.99;;
80953;Laerm;70415;51.660;5.824;2023-06-22T00:39:46;33.21;30.68;41.45;;
80953;Laerm;70415;51.660;5.824;2023-06-22T00:43:46;35.32;30.41;47.54;;
80953;Laerm;70415;51.660;5.824;2023-06-22T00:47:46;34.32;30.44;44.18;;
80953;Laerm;70415;51.660;5.824;2023-06-22T00:51:46;35.21;30.77;44.56;;
80953;Laerm;70415;51.660;5.824;2023-06-22T00:55:46;36.74;30.82;45.94;;
80953;Laerm;70415;51.660;5.824;2023-06-22T00:59:47;53.92;31.78;69.48;;
80953;Laerm;70415;51.660;5.824;2023-06-22T01:03:46;64.57;30.53;77.66;;
80953;Laerm;70415;51.660;5.824;2023-06-22T01:07:50;33.07;30.22;44.39;;
80953;Laerm;70415;51.660;5.824;2023-06-22T01:11:47;34.47;30;44.89;;
80953;Laerm;70415;51.660;5.824;2023-06-22T01:15:49;33.92;30.17;45.24;;
80953;Laerm;70415;51.660;5.824;2023-06-22T01:19:47;33.71;30.29;44.36;;
80953;Laerm;70415;51.660;5.824;2023-06-22T01:23:50;33.11;30.46;43.54;;
80953;Laerm;70415;51.660;5.824;2023-06-22T01:27:49;34.3;30.59;44.34;;
80953;Laerm;70415;51.660;5.824;2023-06-22T01:31:46;34.07;30.15;46.84;;
80953;Laerm;70415;51.660;5.824;2023-06-22T01:35:46;34.48;30.35;45.01;;
80953;Laerm;70415;51.660;5.824;2023-06-22T01:39:46;33.79;30.64;45.51;;
80953;Laerm;70415;51.660;5.824;2023-06-22T01:43:47;35.05;30.47;45.82;;
80953;Laerm;70415;51.660;5.824;2023-06-22T01:47:47;33.73;30.76;44.17;;
80953;Laerm;70415;51.660;5.824;2023-06-22T01:51:46;35.09;30.21;46.45;;
80953;Laerm;70415;51.660;5.824;2023-06-22T01:55:46;36.9;30.91;46.79;;
80953;Laerm;70415;51.660;5.824;2023-06-22T01:59:48;34.65;30.72;46.26;;
80953;Laerm;70415;51.660;5.824;2023-06-22T02:03:56;35.51;30.52;46.89;;
80953;Laerm;70415;51.660;5.824;2023-06-22T02:07:48;33.46;30.23;43.91;;
80953;Laerm;70415;51.660;5.824;2023-06-22T02:11:46;39.52;30.6;53.75;;
80953;Laerm;70415;51.660;5.824;2023-06-22T02:15:47;41.37;30.48;58.42;;
80953;Laerm;70415;51.660;5.824;2023-06-22T02:19:47;44.57;31.05;58.46;;
80953;Laerm;70415;51.660;5.824;2023-06-22T02:23:47;44.63;31.24;58.28;;
80953;Laerm;70415;51.660;5.824;2023-06-22T02:27:46;55.76;31.36;77.82;;
80953;Laerm;70415;51.660;5.824;2023-06-22T02:31:47;45.13;31.84;60.11;;
80953;Laerm;70415;51.660;5.824;2023-06-22T02:35:47;44.23;31.23;59.33;;
80953;Laerm;70415;51.660;5.824;2023-06-22T02:39:47;57.9;31.44;84.11;;
80953;Laerm;70415;51.660;5.824;2023-06-22T02:43:47;55.4;31.63;81.34;;
80953;Laerm;70415;51.660;5.824;2023-06-22T02:47:47;44.19;31.92;67.93;;
80953;Laerm;70415;51.660;5.824;2023-06-22T02:51:47;39.79;31.19;54.46;;
80953;Laerm;70415;51.660;5.824;2023-06-22T02:55:47;40.21;32.45;54.38;;
80953;Laerm;70415;51.660;5.824;2023-06-22T02:59:47;40.03;32.35;52.98;;
80953;Laerm;70415;51.660;5.824;2023-06-22T03:03:47;44.86;32.79;56.72;;
80953;Laerm;70415;51.660;5.824;2023-06-22T03:07:47;38.53;32.2;52.2;;
80953;Laerm;70415;51.660;5.824;2023-06-22T03:11:47;38.82;32.21;52.02;;
80953;Laerm;70415;51.660;5.824;2023-06-22T03:15:47;43.25;32.5;65.16;;
80953;Laerm;70415;51.660;5.824;2023-06-22T03:19:47;46.67;32.87;65.44;;
80953;Laerm;70415;51.660;5.824;2023-06-22T03:23:47;44.66;32.91;61.7;;
80953;Laerm;70415;51.660;5.824;2023-06-22T03:27:47;39.64;32.92;50.62;;
80953;Laerm;70415;51.660;5.824;2023-06-22T03:31:47;43.86;33.7;56.06;;
80953;Laerm;70415;51.660;5.824;2023-06-22T03:35:47;46.65;32.69;65.22;;
80953;Laerm;70415;51.660;5.824;2023-06-22T03:39:47;50.99;33.52;80.22;;
80953;Laerm;70415;51.660;5.824;2023-06-22T03:43:47;43.07;33.56;55.41;;
80953;Laerm;70415;51.660;5.824;2023-06-22T03:47:47;46.81;33.67;60.57;;
80953;Laerm;70415;51.660;5.824;2023-06-22T03:51:47;40.38;33.2;57.41;;
80953;Laerm;70415;51.660;5.824;2023-06-22T03:55:48;46.37;33.19;65.41;;
80953;Laerm;70415;51.660;5.824;2023-06-22T03:59:47;39.25;33.43;51.79;;
80953;Laerm;70415;51.660;5.824;2023-06-22T04:03:47;43.28;38.16;65.89;;
80953;Laerm;70415;51.660;5.824;2023-06-22T04:07:47;45.78;38.29;58.7;;
80953;Laerm;70415;51.660;5.824;2023-06-22T04:11:47;47.01;38.32;63.16;;
80953;Laerm;70415;51.660;5.824;2023-06-22T04:15:47;42.6;37.79;58.5;;
80953;Laerm;70415;51.660;5.824;2023-06-22T04:23:47;45.89;38.07;56.89;;
80953;Laerm;70415;51.660;5.824;2023-06-22T04:27:47;45.81;38.14;63.14;;
80953;Laerm;70415;51.660;5.824;2023-06-22T04:31:47;45.2;36.81;60.69;;
80953;Laerm;70415;51.660;5.824;2023-06-22T04:35:47;45.9;35.77;61.02;;
80953;Laerm;70415;51.660;5.824;2023-06-22T04:39:47;43.88;36.06;55.65;;
80953;Laerm;70415;51.660;5.824;2023-06-22T04:43:47;46.99;36.82;58.46;;
80953;Laerm;70415;51.660;5.824;2023-06-22T04:47:47;45.48;36.48;56.47;;
80953;Laerm;70415;51.660;5.824;2023-06-22T04:51:47;47.9;38.07;57.72;;
80953;Laerm;70415;51.660;5.824;2023-06-22T04:55:47;46.35;36.88;57.48;;
80953;Laerm;70415;51.660;5.824;2023-06-22T04:59:47;45.16;37.17;55.56;;
80953;Laerm;70415;51.660;5.824;2023-06-22T05:03:47;44.24;37.51;58.45;;
80953;Laerm;70415;51.660;5.824;2023-06-22T05:07:47;43.04;37.31;54.38;;
80953;Laerm;70415;51.660;5.824;2023-06-22T05:11:47;46.16;38.9;57.95;;
80953;Laerm;70415;51.660;5.824;2023-06-22T05:15:47;46.87;37.89;61.41;;
80953;Laerm;70415;51.660;5.824;2023-06-22T05:19:47;46.72;37.46;56.74;;
80953;Laerm;70415;51.660;5.824;2023-06-22T05:23:47;47.33;37.42;62.12;;
80953;Laerm;70415;51.660;5.824;2023-06-22T05:27:47;44.53;36.55;57.15;;
80953;Laerm;70415;51.660;5.824;2023-06-22T05:31:47;45.62;36.21;65.75;;
80953;Laerm;70415;51.660;5.824;2023-06-22T05:35:47;46.9;35.68;66.71;;
80953;Laerm;70415;51.660;5.824;2023-06-22T05:39:47;45.87;34.85;61.62;;
80953;Laerm;70415;51.660;5.824;2023-06-22T05:43:47;47;36.49;62.58;;
80953;Laerm;70415;51.660;5.824;2023-06-22T05:47:47;45.08;36.78;59.51;;
80953;Laerm;70415;51.660;5.824;2023-06-22T05:51:47;46.78;37.8;59.18;;
80953;Laerm;70415;51.660;5.824;2023-06-22T05:55:47;46.36;35.55;69.84;;
80953;Laerm;70415;51.660;5.824;2023-06-22T05:59:47;45.98;35.66;58.16;;
80953;Laerm;70415;51.660;5.824;2023-06-22T06:03:47;43.61;34.74;63.1;;
80953;Laerm;70415;51.660;5.824;2023-06-22T06:07:47;46.98;35.24;62.57;;
80953;Laerm;70415;51.660;5.824;2023-06-22T06:11:47;46.23;35.87;59.35;;
80953;Laerm;70415;51.660;5.824;2023-06-22T06:15:47;44.16;35.77;60.37;;
80953;Laerm;70415;51.660;5.824;2023-06-22T06:19:47;45.21;35.7;65.54;;
80953;Laerm;70415;51.660;5.824;2023-06-22T06:23:47;45.89;35.49;63.6;;
80953;Laerm;70415;51.660;5.824;2023-06-22T06:27:47;50.95;35.69;67.44;;
80953;Laerm;70415;51.660;5.824;2023-06-22T06:31:47;43.92;35.57;68.12;;
80953;Laerm;70415;51.660;5.824;2023-06-22T06:35:47;43.26;35.53;63.56;;
80953;Laerm;70415;51.660;5.824;2023-06-22T06:39:47;45.56;36.29;60;;
80953;Laerm;70415;51.660;5.824;2023-06-22T06:43:47;46.81;35.11;60.84;;
80953;Laerm;70415;51.660;5.824;2023-06-22T06:47:47;43.45;34.75;64.21;;
80953;Laerm;70415;51.660;5.824;2023-06-22T06:51:47;48.85;34.98;64.43;;
80953;Laerm;70415;51.660;5.824;2023-06-22T06:55:47;43.5;34.37;63.13;;
80953;Laerm;70415;51.660;5.824;2023-06-22T06:59:47;41.93;32.86;56.62;;
80953;Laerm;70415;51.660;5.824;2023-06-22T07:03:47;41.58;33.75;56.64;;
80953;Laerm;70415;51.660;5.824;2023-06-22T07:07:47;44.05;33.42;55.27;;
80953;Laerm;70415;51.660;5.824;2023-06-22T07:11:47;63.85;35.34;74.72;;
80953;Laerm;70415;51.660;5.824;2023-06-22T07:15:47;44.58;35.48;64.72;;
80953;Laerm;70415;51.660;5.824;2023-06-22T07:19:47;39.68;33.92;50.97;;
80953;Laerm;70415;51.660;5.824;2023-06-22T07:23:47;40.97;33.22;57.86;;
80953;Laerm;70415;51.660;5.824;2023-06-22T07:27:56;42.87;33.97;66.29;;
80953;Laerm;70415;51.660;5.824;2023-06-22T07:31:48;43.76;33.46;64.72;;
80953;Laerm;70415;51.660;5.824;2023-06-22T07:35:47;44.86;33.02;58.14;;
80953;Laerm;70415;51.660;5.824;2023-06-22T07:39:47;46.79;34.09;64.28;;
80953;Laerm;70415;51.660;5.824;2023-06-22T07:43:47;43.42;34.13;58.58;;
80953;Laerm;70415;51.660;5.824;2023-06-22T07:47:47;46.09;33.45;63.21;;
80953;Laerm;70415;51.660;5.824;2023-06-22T07:51:47;40.61;33.07;52.55;;
80953;Laerm;70415;51.660;5.824;2023-06-22T07:55:47;43.69;33.5;61.79;;
80953;Laerm;70415;51.660;5.824;2023-06-22T07:59:47;53.79;34.22;72.51;;
80953;Laerm;70415;51.660;5.824;2023-06-22T08:03:47;42.2;34.24;56.24;;
80953;Laerm;70415;51.660;5.824;2023-06-22T08:07:47;45.07;34.65;63.25;;
80953;Laerm;70415;51.660;5.824;2023-06-22T08:11:47;42.87;33.8;55.75;;
80953;Laerm;70415;51.660;5.824;2023-06-22T08:15:47;45.87;34.74;66.46;;
80953;Laerm;70415;51.660;5.824;2023-06-22T08:19:47;45.46;34.07;66;;
80953;Laerm;70415;51.660;5.824;2023-06-22T08:23:47;45.71;34.66;62.85;;
80953;Laerm;70415;51.660;5.824;2023-06-22T08:27:47;47.27;36.06;67.25;;
80953;Laerm;70415;51.660;5.824;2023-06-22T08:31:47;52.22;35.05;71.59;;
80953;Laerm;70415;51.660;5.824;2023-06-22T08:35:47;50.03;34.23;74.17;;
80953;Laerm;70415;51.660;5.824;2023-06-22T08:39:47;51.5;35.14;78.85;;
80953;Laerm;70415;51.660;5.824;2023-06-22T08:43:47;48.09;35.32;66.42;;
80953;Laerm;70415;51.660;5.824;2023-06-22T08:47:47;49.79;35.26;70.8;;
80953;Laerm;70415;51.660;5.824;2023-06-22T08:51:47;47.54;34.42;77.38;;
80953;Laerm;70415;51.660;5.824;2023-06-22T08:55:47;47.31;33.91;72.39;;
80953;Laerm;70415;51.660;5.824;2023-06-22T08:59:47;45.73;37.34;67.88;;
80953;Laerm;70415;51.660;5.824;2023-06-22T09:03:47;48.53;34.57;66.99;;
80953;Laerm;70415;51.660;5.824;2023-06-22T09:07:47;47.25;33.99;69.37;;
80953;Laerm;70415;51.660;5.824;2023-06-22T09:11:47;48.99;34.74;67.01;;
80953;Laerm;70415;51.660;5.824;2023-06-22T09:15:47;44.16;33.84;65.62;;
80953;Laerm;70415;51.660;5.824;2023-06-22T09:19:47;65.53;34.76;77.96;;
80953;Laerm;70415;51.660;5.824;2023-06-22T09:23:47;70.02;56.68;79.85;;
80953;Laerm;70415;51.660;5.824;2023-06-22T09:27:47;67.79;57.62;77.6;;
80953;Laerm;70415;51.660;5.824;2023-06-22T09:31:47;70.75;37.81;80.91;;
80953;Laerm;70415;51.660;5.824;2023-06-22T09:35:47;70.92;36.27;82.06;;
80953;Laerm;70415;51.660;5.824;2023-06-22T09:39:47;46.67;36.4;68.97;;
80953;Laerm;70415;51.660;5.824;2023-06-22T09:43:47;44.89;34.84;55.08;;
80953;Laerm;70415;51.660;5.824;2023-06-22T09:47:47;54.72;34.42;74.21;;
80953;Laerm;70415;51.660;5.824;2023-06-22T09:51:47;47.53;35.58;71.58;;
80953;Laerm;70415;51.660;5.824;2023-06-22T09:55:47;45.8;34.89;69.44;;
80953;Laerm;70415;51.660;5.824;2023-06-22T09:59:47;47.53;34.36;69.18;;
80953;Laerm;70415;51.660;5.824;2023-06-22T10:03:47;49.46;37.26;74.47;;
80953;Laerm;70415;51.660;5.824;2023-06-22T10:07:47;45.65;36.69;60.44;;
80953;Laerm;70415;51.660;5.824;2023-06-22T10:11:47;44.97;37.45;56.91;;
80953;Laerm;70415;51.660;5.824;2023-06-22T10:15:47;46.77;35.01;60.21;;
80953;Laerm;70415;51.660;5.824;2023-06-22T10:19:47;53.72;37.15;68.88;;
80953;Laerm;70415;51.660;5.824;2023-06-22T10:23:47;47.46;36.17;68.13;;
80953;Laerm;70415;51.660;5.824;2023-06-22T10:27:48;64.88;35.78;78.31;;
80953;Laerm;70415;51.660;5.824;2023-06-22T10:31:47;49.41;35.29;70.15;;
80953;Laerm;70415;51.660;5.824;2023-06-22T10:35:47;49.99;35.35;69.84;;
80953;Laerm;70415;51.660;5.824;2023-06-22T10:39:48;47.27;35.64;61.27;;
80953;Laerm;70415;51.660;5.824;2023-06-22T10:43:48;49.07;35.08;77.53;;
80953;Laerm;70415;51.660;5.824;2023-06-22T10:47:47;44.73;34.46;57.49;;
80953;Laerm;70415;51.660;5.824;2023-06-22T10:51:48;47.46;35.57;66.84;;
80953;Laerm;70415;51.660;5.824;2023-06-22T10:55:48;44.82;36.09;56.52;;
80953;Laerm;70415;51.660;5.824;2023-06-22T10:59:48;47.09;36.3;72.22;;
80953;Laerm;70415;51.660;5.824;2023-06-22T11:03:48;43.28;34.04;64.51;;
80953;Laerm;70415;51.660;5.824;2023-06-22T11:07:48;44.13;34.59;56.72;;
80953;Laerm;70415;51.660;5.824;2023-06-22T11:11:48;54.81;34.55;64.67;;
80953;Laerm;70415;51.660;5.824;2023-06-22T11:15:48;58.01;51.24;63.19;;
80953;Laerm;70415;51.660;5.824;2023-06-22T11:19:48;52.64;48.32;59.42;;
80953;Laerm;70415;51.660;5.824;2023-06-22T11:23:48;55.3;48.79;61.53;;
80953;Laerm;70415;51.660;5.824;2023-06-22T11:27:48;56.9;50.25;62.14;;
80953;Laerm;70415;51.660;5.824;2023-06-22T11:31:48;59.73;53.93;66.98;;
80953;Laerm;70415;51.660;5.824;2023-06-22T11:35:48;55.76;46.64;66.48;;
80953;Laerm;70415;51.660;5.824;2023-06-22T11:39:48;56.41;48.77;63.81;;
80953;Laerm;70415;51.660;5.824;2023-06-22T11:43:48;57.74;52.83;62.34;;
80953;Laerm;70415;51.660;5.824;2023-06-22T11:47:48;58.04;54.91;63.93;;
80953;Laerm;70415;51.660;5.824;2023-06-22T11:51:48;63.61;55.57;68.07;;
80953;Laerm;70415;51.660;5.824;2023-06-22T11:55:48;59.63;55.63;64.05;;
80953;Laerm;70415;51.660;5.824;2023-06-22T11:59:48;66.75;59.07;71.87;;
80953;Laerm;70415;51.660;5.824;2023-06-22T12:03:48;62.19;56.47;67.56;;
80953;Laerm;70415;51.660;5.824;2023-06-22T12:07:48;59.93;55.87;67.43;;
80953;Laerm;70415;51.660;5.824;2023-06-22T12:11:48;58.77;53.03;74.1;;
80953;Laerm;70415;51.660;5.824;2023-06-22T12:15:48;54.13;46.68;78.48;;
80953;Laerm;70415;51.660;5.824;2023-06-22T12:19:48;52.28;44.7;78.01;;
80953;Laerm;70415;51.660;5.824;2023-06-22T12:23:48;53.76;43.39;80.65;;
80953;Laerm;70415;51.660;5.824;2023-06-22T12:27:48;54.63;44.21;80.88;;
80953;Laerm;70415;51.660;5.824;2023-06-22T12:31:48;47.72;41.27;67.94;;
80953;Laerm;70415;51.660;5.824;2023-06-22T12:35:48;53.56;39.57;78.92;;
80953;Laerm;70415;51.660;5.824;2023-06-22T12:39:48;46.39;37.28;67.6;;
80953;Laerm;70415;51.660;5.824;2023-06-22T12:43:48;48.89;36.72;71.05;;
80953;Laerm;70415;51.660;5.824;2023-06-22T12:47:48;46.02;37.43;58.11;;
80953;Laerm;70415;51.660;5.824;2023-06-22T12:51:48;49.34;36.1;73.11;;
80953;Laerm;70415;51.660;5.824;2023-06-22T12:55:48;47.96;36.07;75.39;;
80953;Laerm;70415;51.660;5.824;2023-06-22T12:59:48;50.82;37.44;75.32;;
80953;Laerm;70415;51.660;5.824;2023-06-22T13:03:48;46.7;39.24;68.58;;
80953;Laerm;70415;51.660;5.824;2023-06-22T13:07:48;47.94;38.61;67.29;;
80953;Laerm;70415;51.660;5.824;2023-06-22T13:11:48;49.14;38.64;61.46;;
80953;Laerm;70415;51.660;5.824;2023-06-22T13:15:48;58.36;37.45;83.43;;
80953;Laerm;70415;51.660;5.824;2023-06-22T13:19:48;46.75;38.22;72.74;;
80953;Laerm;70415;51.660;5.824;2023-06-22T13:23:48;52.43;37.67;72.88;;
80953;Laerm;70415;51.660;5.824;2023-06-22T13:27:48;53.05;37.51;80.91;;
80953;Laerm;70415;51.660;5.824;2023-06-22T13:31:48;56.92;37.65;78.73;;
80953;Laerm;70415;51.660;5.824;2023-06-22T13:35:48;50.77;39.4;74.58;;
80953;Laerm;70415;51.660;5.824;2023-06-22T13:39:48;49.37;41.56;65.4;;
80953;Laerm;70415;51.660;5.824;2023-06-22T13:43:48;49.18;38.88;69.43;;
80953;Laerm;70415;51.660;5.824;2023-06-22T13:47:48;53.46;41.67;74.9;;
80953;Laerm;70415;51.660;5.824;2023-06-22T13:51:48;49.76;44.2;59.65;;
80953;Laerm;70415;51.660;5.824;2023-06-22T13:55:48;51.51;43.36;71.27;;
80953;Laerm;70415;51.660;5.824;2023-06-22T13:59:48;55.97;49.14;60.19;;
80953;Laerm;70415;51.660;5.824;2023-06-22T14:03:48;58.17;52.4;63.78;;
80953;Laerm;70415;51.660;5.824;2023-06-22T14:07:48;54.7;47.71;65.65;;
80953;Laerm;70415;51.660;5.824;2023-06-22T14:11:48;50.69;46.44;58.86;;
80953;Laerm;70415;51.660;5.824;2023-06-22T14:15:48;49.56;41.37;59.34;;
80953;Laerm;70415;51.660;5.824;2023-06-22T14:19:48;49.49;40.73;59.84;;
80953;Laerm;70415;51.660;5.824;2023-06-22T14:27:48;58.88;44.75;74.3;;
80953;Laerm;70415;51.660;5.824;2023-06-22T14:31:48;52.9;45.29;61.03;;
80953;Laerm;70415;51.660;5.824;2023-06-22T14:35:48;57.55;49.83;74.88;;
80953;Laerm;70415;51.660;5.824;2023-06-22T14:39:48;55.64;49.68;63.06;;
80953;Laerm;70415;51.660;5.824;2023-06-22T14:43:48;54.06;49.55;62.35;;
80953;Laerm;70415;51.660;5.824;2023-06-22T14:47:48;54.15;49.17;61.12;;
80953;Laerm;70415;51.660;5.824;2023-06-22T14:51:48;55.57;47.02;72.54;;
80953;Laerm;70415;51.660;5.824;2023-06-22T14:55:48;60.62;55.35;82.69;;
80953;Laerm;70415;51.660;5.824;2023-06-22T14:59:48;58.67;53.82;62.76;;
80953;Laerm;70415;51.660;5.824;2023-06-22T15:03:48;67.79;52.55;82;;
80953;Laerm;70415;51.660;5.824;2023-06-22T15:07:48;57.03;47.56;74.59;;
80953;Laerm;70415;51.660;5.824;2023-06-22T15:11:48;58.78;52.19;79.7;;
80953;Laerm;70415;51.660;5.824;2023-06-22T15:15:48;56.94;50.54;71.36;;
80953;Laerm;70415;51.660;5.824;2023-06-22T15:19:48;57.35;53.09;69.77;;
80953;Laerm;70415;51.660;5.824;2023-06-22T15:23:48;60.65;55.35;67.13;;
80953;Laerm;70415;51.660;5.824;2023-06-22T15:27:48;61.24;55;66.68;;
80953;Laerm;70415;51.660;5.824;2023-06-22T15:31:48;62.89;57.68;68.11;;
80953;Laerm;70415;51.660;5.824;2023-06-22T15:35:48;63.41;59.15;68.12;;
80953;Laerm;70415;51.660;5.824;2023-06-22T15:39:48;65.32;61.7;69.18;;
80953;Laerm;70415;51.660;5.824;2023-06-22T15:43:48;64.01;59.14;68.73;;
80953;Laerm;70415;51.660;5.824;2023-06-22T15:47:48;62.19;57.59;66.66;;
80953;Laerm;70415;51.660;5.824;2023-06-22T15:51:48;64.22;60.06;76.13;;
80953;Laerm;70415;51.660;5.824;2023-06-22T15:55:48;64.3;58.92;69.86;;
80953;Laerm;70415;51.660;5.824;2023-06-22T15:59:48;63.35;58.57;76.74;;
80953;Laerm;70415;51.660;5.824;2023-06-22T16:03:49;64.66;60.6;74.27;;
80953;Laerm;70415;51.660;5.824;2023-06-22T16:07:48;66.12;59.87;72.66;;
80953;Laerm;70415;51.660;5.824;2023-06-22T16:11:48;66.49;60.98;72.37;;
80953;Laerm;70415;51.660;5.824;2023-06-22T16:15:48;65.39;59.18;70.83;;
80953;Laerm;70415;51.660;5.824;2023-06-22T16:19:48;62.78;57.8;67.67;;
80953;Laerm;70415;51.660;5.824;2023-06-22T16:27:48;67.33;60.91;71.99;;
80953;Laerm;70415;51.660;5.824;2023-06-22T16:31:48;61.36;55.5;66.83;;
80953;Laerm;70415;51.660;5.824;2023-06-22T16:35:48;63.11;56.4;68.85;;
80953;Laerm;70415;51.660;5.824;2023-06-22T16:39:48;59.48;55.42;69.77;;
80953;Laerm;70415;51.660;5.824;2023-06-22T16:43:48;60.87;56.29;68.88;;
80953;Laerm;70415;51.660;5.824;2023-06-22T16:47:50;62.16;55.84;74.03;;
80953;Laerm;70415;51.660;5.824;2023-06-22T16:51:48;62.04;54.86;66.27;;
80953;Laerm;70415;51.660;5.824;2023-06-22T16:55:48;61.54;55.7;67.12;;
80953;Laerm;70415;51.660;5.824;2023-06-22T16:59:50;60.85;56.91;64.46;;
80953;Laerm;70415;51.660;5.824;2023-06-22T17:03:52;63.94;58.46;69.25;;
80953;Laerm;70415;51.660;5.824;2023-06-22T17:07:49;64.17;59.01;67.87;;
80953;Laerm;70415;51.660;5.824;2023-06-22T17:11:50;63.24;58.08;68.24;;
80953;Laerm;70415;51.660;5.824;2023-06-22T17:15:48;59.46;52.95;66.38;;
80953;Laerm;70415;51.660;5.824;2023-06-22T17:19:48;59.01;55.3;63.28;;
80953;Laerm;70415;51.660;5.824;2023-06-22T17:23:48;58.3;54.11;64.11;;
80953;Laerm;70415;51.660;5.824;2023-06-22T17:27:48;56.01;49.9;62.3;;
80953;Laerm;70415;51.660;5.824;2023-06-22T17:31:48;54.95;50.46;72.02;;
80953;Laerm;70415;51.660;5.824;2023-06-22T17:35:48;51.91;44.5;74.55;;
80953;Laerm;70415;51.660;5.824;2023-06-22T17:39:51;49.01;42.4;61.99;;
80953;Laerm;70415;51.660;5.824;2023-06-22T17:43:48;47.15;40.11;58.23;;
80953;Laerm;70415;51.660;5.824;2023-06-22T17:47:49;48.53;41.17;58.46;;
80953;Laerm;70415;51.660;5.824;2023-06-22T17:51:49;49.34;42.32;62.76;;
80953;Laerm;70415;51.660;5.824;2023-06-22T17:55:49;49.62;43.55;74.4;;
80953;Laerm;70415;51.660;5.824;2023-06-22T17:59:49;49.19;43.7;57.55;;
80953;Laerm;70415;51.660;5.824;2023-06-22T18:03:48;51.66;45.07;60.44;;
80953;Laerm;70415;51.660;5.824;2023-06-22T18:07:48;50.99;44.84;63.35;;
80953;Laerm;70415;51.660;5.824;2023-06-22T18:11:49;52.96;46.09;59.36;;
80953;Laerm;70415;51.660;5.824;2023-06-22T18:15:49;55.07;50.72;60.67;;
80953;Laerm;70415;51.660;5.824;2023-06-22T18:19:49;54.93;49.96;63.41;;
80953;Laerm;70415;51.660;5.824;2023-06-22T18:23:49;51.55;44.31;62.67;;
80953;Laerm;70415;51.660;5.824;2023-06-22T18:31:49;50.65;43.37;66.4;;
80953;Laerm;70415;51.660;5.824;2023-06-22T18:35:49;51.42;45.33;60.89;;
80953;Laerm;70415;51.660;5.824;2023-06-22T18:39:50;54.14;47.98;60.73;;
80953;Laerm;70415;51.660;5.824;2023-06-22T18:43:51;56.43;51.12;63.88;;
80953;Laerm;70415;51.660;5.824;2023-06-22T18:47:54;51.54;45.46;59.9;;
80953;Laerm;70415;51.660;5.824;2023-06-22T18:51:50;48.89;40.1;73.34;;
80953;Laerm;70415;51.660;5.824;2023-06-22T18:55:49;47.4;38.82;62.06;;
80953;Laerm;70415;51.660;5.824;2023-06-22T18:59:49;45.74;38.48;65.14;;
80953;Laerm;70415;51.660;5.824;2023-06-22T19:03:49;47.12;37.03;59.06;;
80953;Laerm;70415;51.660;5.824;2023-06-22T19:07:56;45.26;37.05;67.58;;
80953;Laerm;70415;51.660;5.824;2023-06-22T19:11:48;45.15;36.21;58.59;;
80953;Laerm;70415;51.660;5.824;2023-06-22T19:15:51;45.67;36.5;61.61;;
80953;Laerm;70415;51.660;5.824;2023-06-22T19:19:49;46.79;37.18;58.28;;
80953;Laerm;70415;51.660;5.824;2023-06-22T19:23:49;45.95;37.36;63.68;;
80953;Laerm;70415;51.660;5.824;2023-06-22T19:27:49;44.15;37.24;55.28;;
80953;Laerm;70415;51.660;5.824;2023-06-22T19:31:49;45.89;37.5;59.61;;
80953;Laerm;70415;51.660;5.824;2023-06-22T19:35:49;46.86;39.5;57.38;;
80953;Laerm;70415;51.660;5.824;2023-06-22T19:39:51;49.2;42.84;58.73;;
80953;Laerm;70415;51.660;5.824;2023-06-22T19:43:49;46.98;41.69;56.86;;
80953;Laerm;70415;51.660;5.824;2023-06-22T19:47:49;45.73;38.25;65.43;;
80953;Laerm;70415;51.660;5.824;2023-06-22T19:51:49;42.51;35.57;53.84;;
80953;Laerm;70415;51.660;5.824;2023-06-22T19:55:49;48.08;37.25;61.63;;
80953;Laerm;70415;51.660;5.824;2023-06-22T19:59:49;52.5;46.7;65.48;;
80953;Laerm;70415;51.660;5.824;2023-06-22T20:03:49;51.61;47.09;59.8;;
80953;Laerm;70415;51.660;5.824;2023-06-22T20:07:49;50.62;46.37;57.71;;
80953;Laerm;70415;51.660;5.824;2023-06-22T20:11:55;49.59;44.08;57.45;;
80953;Laerm;70415;51.660;5.824;2023-06-22T20:15:49;46.63;39.81;57.16;;
80953;Laerm;70415;51.660;5.824;2023-06-22T20:19:52;43.67;38.9;57.07;;
80953;Laerm;70415;51.660;5.824;2023-06-22T20:23:49;43.92;37.71;57.64;;
80953;Laerm;70415;51.660;5.824;2023-06-22T20:27:49;44.54;36.82;63.77;;
80953;Laerm;70415;51.660;5.824;2023-06-22T20:31:49;42.55;34.05;61.45;;
80953;Laerm;70415;51.660;5.824;2023-06-22T20:35:49;43.35;34.9;55.98;;
80953;Laerm;70415;51.660;5.824;2023-06-22T20:39:49;43.53;33.02;63.88;;
80953;Laerm;70415;51.660;5.824;2023-06-22T20:43:51;38.65;33.61;52.62;;
80953;Laerm;70415;51.660;5.824;2023-06-22T20:47:49;40.09;34.18;52.53;;
80953;Laerm;70415;51.660;5.824;2023-06-22T20:51:49;40.74;33.6;59.5;;
80953;Laerm;70415;51.660;5.824;2023-06-22T20:55:49;41.14;33.95;66.87;;
80953;Laerm;70415;51.660;5.824;2023-06-22T20:59:49;38.86;34.81;57.1;;
80953;Laerm;70415;51.660;5.824;2023-06-22T21:03:49;38.12;33.87;49.17;;
80953;Laerm;70415;51.660;5.824;2023-06-22T21:07:49;45.65;36.37;56.42;;
80953;Laerm;70415;51.660;5.824;2023-06-22T21:11:49;50.93;45;60.47;;
80953;Laerm;70415;51.660;5.824;2023-06-22T21:15:49;46.72;39.28;60.73;;
80953;Laerm;70415;51.660;5.824;2023-06-22T21:19:49;45.2;35.55;58.58;;
80953;Laerm;70415;51.660;5.824;2023-06-22T21:23:49;38.32;33.18;54.73;;
80953;Laerm;70415;51.660;5.824;2023-06-22T21:27:49;42.65;33.2;57.8;;
80953;Laerm;70415;51.660;5.824;2023-06-22T21:31:49;40.72;32.94;57.01;;
80953;Laerm;70415;51.660;5.824;2023-06-22T21:35:49;42.88;33.14;59.67;;
80953;Laerm;70415;51.660;5.824;2023-06-22T21:39:49;43.51;33.08;66.67;;
80953;Laerm;70415;51.660;5.824;2023-06-22T21:43:49;39.72;32.69;51.89;;
80953;Laerm;70415;51.660;5.824;2023-06-22T21:47:49;37.53;33.1;49.25;;
80953;Laerm;70415;51.660;5.824;2023-06-22T21:51:49;44.15;32.58;60.84;;
80953;Laerm;70415;51.660;5.824;2023-06-22T21:55:49;38.31;32.17;59.57;;
80953;Laerm;70415;51.660;5.824;2023-06-22T21:59:49;37.55;32.35;50.86;;
80953;Laerm;70415;51.660;5.824;2023-06-22T22:03:49;41.61;32.69;56.31;;
80953;Laerm;70415;51.660;5.824;2023-06-22T22:07:49;37.04;31.75;45.68;;
80953;Laerm;70415;51.660;5.824;2023-06-22T22:11:49;37.29;32.47;46.89;;
80953;Laerm;70415;51.660;5.824;2023-06-22T22:15:49;39.41;32.19;51.67;;
80953;Laerm;70415;51.660;5.824;2023-06-22T22:19:49;39.61;32.73;54.88;;
80953;Laerm;70415;51.660;5.824;2023-06-22T22:23:49;37.67;32.83;48.95;;
80953;Laerm;70415;51.660;5.824;2023-06-22T22:27:49;36.62;32.09;52.41;;
80953;Laerm;70415;51.660;5.824;2023-06-22T22:31:49;41.34;31.29;64.05;;
80953;Laerm;70415;51.660;5.824;2023-06-22T22:35:49;38.2;30.9;58.09;;
80953;Laerm;70415;51.660;5.824;2023-06-22T22:39:49;36.03;30.8;45.31;;
80953;Laerm;70415;51.660;5.824;2023-06-22T22:43:49;37.29;30.66;46.31;;
80953;Laerm;70415;51.660;5.824;2023-06-22T22:47:49;36.21;30.7;47.78;;